createdAt,value
2023-02-22T00:03:25.543Z,56.93
2023-02-22T00:08:19.479Z,56.66
2023-02-22T00:13:16.153Z,56.59
2023-02-22T00:18:10.548Z,56.84
2023-02-22T00:23:07.672Z,56.61
2023-02-22T00:28:00.681Z,56.41
2023-02-22T00:32:54.732Z,56.58
2023-02-22T00:37:52.059Z,56.53
2023-02-22T00:42:44.937Z,56.16
2023-02-22T00:47:39.530Z,56.34
2023-02-22T00:52:32.115Z,56.46
2023-02-22T00:57:25.828Z,56.00
2023-02-22T01:02:18.987Z,56.38
2023-02-22T01:07:14.143Z,56.31
2023-02-22T01:12:06.429Z,56.32
2023-02-22T01:16:58.987Z,56.25
2023-02-22T01:21:52.325Z,55.56
2023-02-22T01:26:46.309Z,56.25
2023-02-22T01:31:40.754Z,56.39
2023-02-22T01:36:33.897Z,56.13
2023-02-22T01:41:27.905Z,55.82
2023-02-22T01:46:22.954Z,56.16
2023-02-22T01:51:20.329Z,55.70
2023-02-22T01:56:13.942Z,55.52
2023-02-22T02:01:07.718Z,55.54
2023-02-22T02:06:02.983Z,55.40
2023-02-22T02:11:02.671Z,55.68
2023-02-22T02:15:56.091Z,55.74
2023-02-22T02:20:57.142Z,55.51
2023-02-22T02:26:17.584Z,56.03
2023-02-22T02:31:19.301Z,55.58
2023-02-22T02:36:29.969Z,55.40
2023-02-22T02:41:34.341Z,55.15
2023-02-22T02:46:39.844Z,55.49
2023-02-22T02:51:40.341Z,55.23
2023-02-22T02:56:33.388Z,55.34
2023-02-22T03:01:29.517Z,54.79
2023-02-22T03:06:21.497Z,54.94
2023-02-22T03:11:18.919Z,55.16
2023-02-22T03:16:44.639Z,55.15
2023-02-22T03:22:11.284Z,54.71
2023-02-22T03:27:28.182Z,55.00
2023-02-22T03:32:28.544Z,54.76
2023-02-22T03:37:26.953Z,55.09
2023-02-22T03:42:35.985Z,54.76
2023-02-22T03:47:43.915Z,54.67
2023-02-22T03:52:44.472Z,54.70
2023-02-22T03:57:46.570Z,54.99
2023-02-22T04:02:39.909Z,54.74
2023-02-22T04:07:35.145Z,55.09
2023-02-22T04:12:28.305Z,54.69
2023-02-22T04:17:29.413Z,54.66
2023-02-22T04:22:22.724Z,54.83
2023-02-22T04:27:16.587Z,54.90
2023-02-22T04:32:09.457Z,54.92
2023-02-22T04:37:04.048Z,54.96
2023-02-22T04:41:57.848Z,54.85
2023-02-22T04:46:50.665Z,55.02
2023-02-22T04:51:44.315Z,54.89
2023-02-22T04:56:38.605Z,54.97
2023-02-22T05:01:35.941Z,54.67
2023-02-22T05:06:30.169Z,54.59
2023-02-22T05:11:23.498Z,54.54
2023-02-22T05:16:17.345Z,54.47
2023-02-22T05:21:10.704Z,54.49
2023-02-22T05:26:04.275Z,54.57
2023-02-22T05:30:57.562Z,54.61
2023-02-22T05:35:51.289Z,54.24
2023-02-22T05:40:44.757Z,54.80
2023-02-22T05:45:37.541Z,54.75
2023-02-22T05:50:30.727Z,54.71
2023-02-22T05:55:25.049Z,55.00
2023-02-22T06:00:29.132Z,55.17
2023-02-22T06:05:21.437Z,53.12
2023-02-22T06:10:15.118Z,54.23
2023-02-22T06:15:09.013Z,53.98
2023-02-22T06:20:02.403Z,53.90
2023-02-22T06:24:55.131Z,53.86
2023-02-22T06:29:48.269Z,53.64
2023-02-22T06:34:42.035Z,51.03
2023-02-22T06:39:34.984Z,47.68
2023-02-22T06:44:28.478Z,47.85
2023-02-22T06:49:21.717Z,47.25
2023-02-22T06:54:14.857Z,48.02
2023-02-22T06:59:08.997Z,47.40
2023-02-22T07:04:02.300Z,48.59
2023-02-22T07:08:55.714Z,46.98
2023-02-22T07:13:49.069Z,47.09
2023-02-22T07:18:42.478Z,49.07
2023-02-22T07:23:34.727Z,49.07
2023-02-22T07:28:28.658Z,49.41
2023-02-22T07:33:22.604Z,49.59
2023-02-22T07:38:17.288Z,49.59
2023-02-22T07:43:19.908Z,49.67
2023-02-22T07:48:12.642Z,49.59
2023-02-22T07:53:08.072Z,49.61
2023-02-22T07:58:03.598Z,49.73
2023-02-22T08:02:57.545Z,49.66
2023-02-22T08:07:50.529Z,49.38
2023-02-22T08:12:43.121Z,49.45
2023-02-22T08:17:36.940Z,49.78
2023-02-22T08:22:30.628Z,49.52
2023-02-22T08:27:26.225Z,49.47
2023-02-22T08:32:19.086Z,49.31
2023-02-22T08:37:11.361Z,49.26
2023-02-22T08:42:04.222Z,49.20
2023-02-22T08:46:57.202Z,49.19
2023-02-22T08:51:51.407Z,49.29
2023-02-22T08:56:45.957Z,49.48
2023-02-22T09:01:39.734Z,49.71
2023-02-22T09:06:32.887Z,50.15
2023-02-22T09:11:25.538Z,49.92
2023-02-22T09:16:18.908Z,50.19
2023-02-22T09:21:12.557Z,50.36
2023-02-22T09:26:08.611Z,50.24
2023-02-22T09:31:02.141Z,50.31
2023-02-22T09:35:55.322Z,50.21
2023-02-22T09:40:51.165Z,50.37
2023-02-22T09:45:58.457Z,50.33
2023-02-22T09:50:58.489Z,50.36
2023-02-22T09:55:53.497Z,50.37
2023-02-22T10:00:50.308Z,50.45
2023-02-22T10:05:50.061Z,50.44
2023-02-22T10:10:47.908Z,50.16
2023-02-22T10:15:51.920Z,50.29
2023-02-22T10:21:03.444Z,50.41
2023-02-22T10:26:16.774Z,50.55
2023-02-22T10:31:20.967Z,50.42
2023-02-22T10:36:21.804Z,50.51
2023-02-22T10:41:26.674Z,50.73
2023-02-22T10:46:22.870Z,50.43
2023-02-22T10:51:15.886Z,50.53
2023-02-22T10:56:28.091Z,50.55
2023-02-22T11:01:32.285Z,50.59
2023-02-22T11:06:24.536Z,50.68
2023-02-22T11:11:26.357Z,50.45
2023-02-22T11:16:33.249Z,50.76
2023-02-22T11:21:26.437Z,50.69
2023-02-22T11:26:20.738Z,50.60
2023-02-22T11:31:21.621Z,50.38
2023-02-22T11:36:43.218Z,50.56
2023-02-22T11:41:36.205Z,50.59
2023-02-22T11:46:35.866Z,50.71
2023-02-22T11:51:31.933Z,50.78
2023-02-22T11:56:38.445Z,50.51
2023-02-22T12:02:22.837Z,50.66
2023-02-22T12:07:53.488Z,50.71
2023-02-22T12:13:04.696Z,50.78
2023-02-22T12:18:07.758Z,50.90
2023-02-22T12:23:07.846Z,51.67
2023-02-22T12:28:25.082Z,52.90
2023-02-22T12:33:27.711Z,54.46
2023-02-22T12:38:34.224Z,53.84
2023-02-22T12:43:52.286Z,53.23
2023-02-22T12:48:53.130Z,53.84
2023-02-22T12:54:02.322Z,53.25
2023-02-22T12:59:09.574Z,53.05
2023-02-22T13:04:19.518Z,52.88
2023-02-22T13:09:34.737Z,52.68
2023-02-22T13:14:36.333Z,52.96
2023-02-22T13:19:51.621Z,53.45
2023-02-22T13:24:53.368Z,53.11
2023-02-22T13:29:50.221Z,52.84
2023-02-22T13:35:03.806Z,52.50
2023-02-22T13:40:28.373Z,52.59
2023-02-22T13:45:33.300Z,52.54
2023-02-22T13:50:26.070Z,52.44
2023-02-22T13:55:26.609Z,52.33
2023-02-22T14:00:21.035Z,52.28
2023-02-22T14:05:36.297Z,52.34
2023-02-22T14:10:38.714Z,52.21
2023-02-22T14:15:31.389Z,52.18
2023-02-22T14:20:38.579Z,52.11
2023-02-22T14:25:43.354Z,51.91
2023-02-22T14:30:39.053Z,51.62
2023-02-22T14:35:49.915Z,51.65
2023-02-22T14:40:45.641Z,51.65
2023-02-22T14:45:46.115Z,51.65
2023-02-22T14:50:41.974Z,51.56
2023-02-22T14:55:42.809Z,51.71
2023-02-22T15:00:46.167Z,51.61
2023-02-22T15:05:41.875Z,51.64
2023-02-22T15:10:46.388Z,51.56
2023-02-22T15:15:49.212Z,51.69
2023-02-22T15:20:43.494Z,51.64
2023-02-22T15:25:42.410Z,51.73
2023-02-22T15:30:35.355Z,51.82
2023-02-22T15:35:33.694Z,51.90
2023-02-22T15:40:33.535Z,51.90
2023-02-22T15:45:26.908Z,51.96
2023-02-22T15:50:37.560Z,51.75
2023-02-22T15:55:33.166Z,51.97
2023-02-22T16:01:01.893Z,51.94
2023-02-22T16:05:57.348Z,52.03
2023-02-22T16:11:05.925Z,51.82
2023-02-22T16:16:02.228Z,52.17
2023-02-22T16:21:22.248Z,52.35
2023-02-22T16:26:34.781Z,52.21
2023-02-22T16:31:39.680Z,52.39
2023-02-22T16:36:45.572Z,52.49
2023-02-22T16:41:42.237Z,52.54
2023-02-22T16:46:36.159Z,52.73
2023-02-22T16:51:33.072Z,53.22
2023-02-22T16:56:31.192Z,52.86
2023-02-22T17:01:24.593Z,52.77
2023-02-22T17:06:18.020Z,53.43
2023-02-22T17:11:12.873Z,54.42
2023-02-22T17:16:06.819Z,57.58
2023-02-22T17:21:00.577Z,59.18
2023-02-22T17:25:56.126Z,59.96
2023-02-22T17:30:49.551Z,52.99
2023-02-22T17:35:43.592Z,53.85
2023-02-22T17:40:39.294Z,52.37
2023-02-22T17:45:33.436Z,51.60
2023-02-22T17:50:27.477Z,52.07
2023-02-22T17:55:22.007Z,51.37
2023-02-22T18:00:24.077Z,51.17
2023-02-22T18:05:17.408Z,52.71
2023-02-22T18:10:13.773Z,52.52
2023-02-22T18:15:08.562Z,52.65
2023-02-22T18:20:02.743Z,52.86
2023-02-22T18:25:00.875Z,53.49
2023-02-22T18:29:55.538Z,54.08
2023-02-22T18:34:50.633Z,53.90
2023-02-22T18:39:43.896Z,54.35
2023-02-22T18:44:37.940Z,54.49
2023-02-22T18:49:31.738Z,54.37
2023-02-22T18:54:24.477Z,54.30
2023-02-22T18:59:17.469Z,54.89
2023-02-22T19:04:10.439Z,53.84
2023-02-22T19:09:08.125Z,54.26
2023-02-22T19:14:01.336Z,54.82
2023-02-22T19:18:57.803Z,54.58
2023-02-22T19:23:52.090Z,54.38
2023-02-22T19:28:46.644Z,54.41
2023-02-22T19:33:38.815Z,54.37
2023-02-22T19:38:33.098Z,54.50
2023-02-22T19:43:25.363Z,54.76
2023-02-22T19:48:19.883Z,54.58
2023-02-22T19:53:14.567Z,54.62
2023-02-22T19:58:08.591Z,54.63
2023-02-22T20:03:22.651Z,54.75
2023-02-22T20:08:15.835Z,54.80
2023-02-22T20:13:12.921Z,54.45
2023-02-22T20:18:07.111Z,54.62
2023-02-22T20:22:59.769Z,54.85
2023-02-22T20:27:56.998Z,54.72
2023-02-22T20:32:50.779Z,54.93
2023-02-22T20:37:44.205Z,55.45
2023-02-22T20:42:36.795Z,55.68
2023-02-22T20:47:29.140Z,55.50
2023-02-22T20:52:22.418Z,55.41
2023-02-22T20:57:15.580Z,55.37
2023-02-22T21:02:10.716Z,55.99
2023-02-22T21:07:03.389Z,55.38
2023-02-22T21:11:57.121Z,55.52
2023-02-22T21:16:52.089Z,55.20
2023-02-22T21:21:45.114Z,55.60
2023-02-22T21:26:38.225Z,55.50
2023-02-22T21:31:31.872Z,55.41
2023-02-22T21:36:27.469Z,55.81
2023-02-22T21:41:22.305Z,55.85
2023-02-22T21:46:15.091Z,56.11
2023-02-22T21:51:14.827Z,55.61
2023-02-22T21:56:07.771Z,56.46
2023-02-22T22:01:08.202Z,56.38
2023-02-22T22:06:02.055Z,57.10
2023-02-22T22:10:58.154Z,57.84
2023-02-22T22:15:51.892Z,57.73
2023-02-22T22:20:45.833Z,57.59
2023-02-22T22:25:38.649Z,57.06
2023-02-22T22:30:31.843Z,57.25
2023-02-22T22:35:24.318Z,57.22
2023-02-22T22:40:18.293Z,57.68
2023-02-22T22:45:14.315Z,58.14
2023-02-22T22:50:11.367Z,57.97
2023-02-22T22:55:05.707Z,57.82
2023-02-22T23:00:00.445Z,57.87
2023-02-22T23:04:52.598Z,58.32
2023-02-22T23:09:45.475Z,58.12
2023-02-22T23:14:44.065Z,58.36
2023-02-22T23:19:38.584Z,58.07
2023-02-22T23:24:33.130Z,58.23
2023-02-22T23:29:27.819Z,57.94
2023-02-22T23:34:24.086Z,57.61
2023-02-22T23:39:20.745Z,58.04
2023-02-22T23:44:17.721Z,58.09
2023-02-22T23:49:11.954Z,58.04
2023-02-22T23:54:06.459Z,57.81
2023-02-22T23:59:01.013Z,57.55
